sensor_id;sensor_type;location;lat;lon;timestamp;pressure;altitude;pressure_sealevel;temperature;humidity
65760;BME280;52496;51.082;5.066;2023-08-21T00:00:33;102125.41;;;20.11;100.00
65760;BME280;52496;51.082;5.066;2023-08-21T00:03:06;102118.13;;;20.05;100.00
65760;BME280;52496;51.082;5.066;2023-08-21T00:08:17;102123.81;;;19.97;100.00
65760;BME280;52496;51.082;5.066;2023-08-21T00:10:48;102118.19;;;19.92;100.00
65760;BME280;52496;51.082;5.066;2023-08-21T00:18:41;102134.09;;;19.88;100.00
65760;BME280;52496;51.082;5.066;2023-08-21T00:21:14;102131.22;;;19.77;100.00
65760;BME280;52496;51.082;5.066;2023-08-21T00:23:45;102134.97;;;19.76;100.00
65760;BME280;52496;51.082;5.066;2023-08-21T00:26:16;102128.72;;;19.68;100.00
65760;BME280;52496;51.082;5.066;2023-08-21T00:28:50;102127.69;;;19.69;100.00
65760;BME280;52496;51.082;5.066;2023-08-21T00:39:12;102139.38;;;19.63;100.00
65760;BME280;52496;51.082;5.066;2023-08-21T00:41:43;102127.91;;;19.55;100.00
65760;BME280;52496;51.082;5.066;2023-08-21T00:44:13;102135.81;;;19.56;100.00
65760;BME280;52496;51.082;5.066;2023-08-21T00:46:44;102126.66;;;19.51;100.00
65760;BME280;52496;51.082;5.066;2023-08-21T00:49:14;102123.53;;;19.47;100.00
65760;BME280;52496;51.082;5.066;2023-08-21T00:51:48;102133.97;;;19.50;100.00
65760;BME280;52496;51.082;5.066;2023-08-21T00:54:20;102117.94;;;19.42;100.00
65760;BME280;52496;51.082;5.066;2023-08-21T00:56:51;102112.94;;;19.39;100.00
65760;BME280;52496;51.082;5.066;2023-08-21T00:59:22;102108.94;;;19.35;100.00
65760;BME280;52496;51.082;5.066;2023-08-21T01:01:53;102119.22;;;19.33;100.00
65760;BME280;52496;51.082;5.066;2023-08-21T01:04:23;102119.63;;;19.30;100.00
65760;BME280;52496;51.082;5.066;2023-08-21T01:07:00;102110.03;;;19.20;100.00
65760;BME280;52496;51.082;5.066;2023-08-21T01:12:55;102103.19;;;19.11;100.00
65760;BME280;52496;51.082;5.066;2023-08-21T01:15:14;102104.19;;;19.10;100.00
65760;BME280;52496;51.082;5.066;2023-08-21T01:23:52;102090.84;;;19.15;100.00
65760;BME280;52496;51.082;5.066;2023-08-21T01:26:22;102090.00;;;19.21;100.00
65760;BME280;52496;51.082;5.066;2023-08-21T01:28:53;102093.34;;;19.23;100.00
65760;BME280;52496;51.082;5.066;2023-08-21T01:31:31;102090.81;;;19.29;100.00
65760;BME280;52496;51.082;5.066;2023-08-21T01:34:06;102100.38;;;19.38;100.00
65760;BME280;52496;51.082;5.066;2023-08-21T01:36:40;102107.94;;;19.36;100.00
65760;BME280;52496;51.082;5.066;2023-08-21T01:41:51;102117.94;;;19.29;100.00
65760;BME280;52496;51.082;5.066;2023-08-21T01:44:21;102133.78;;;19.32;100.00
65760;BME280;52496;51.082;5.066;2023-08-21T01:46:53;102128.19;;;19.27;100.00
65760;BME280;52496;51.082;5.066;2023-08-21T01:52:03;102127.56;;;19.24;100.00
65760;BME280;52496;51.082;5.066;2023-08-21T01:54:37;102126.91;;;19.22;100.00
65760;BME280;52496;51.082;5.066;2023-08-21T01:57:07;102150.06;;;19.32;100.00
65760;BME280;52496;51.082;5.066;2023-08-21T01:59:38;102140.91;;;19.33;100.00
65760;BME280;52496;51.082;5.066;2023-08-21T02:02:08;102145.03;;;19.35;100.00
65760;BME280;52496;51.082;5.066;2023-08-21T02:04:38;102154.66;;;19.38;100.00
65760;BME280;52496;51.082;5.066;2023-08-21T02:07:09;102151.94;;;19.38;100.00
65760;BME280;52496;51.082;5.066;2023-08-21T02:09:39;102153.41;;;19.40;100.00
65760;BME280;52496;51.082;5.066;2023-08-21T02:12:10;102140.66;;;19.41;100.00
65760;BME280;52496;51.082;5.066;2023-08-21T02:14:40;102142.34;;;19.42;100.00
65760;BME280;52496;51.082;5.066;2023-08-21T02:17:10;102134.41;;;19.40;100.00
65760;BME280;52496;51.082;5.066;2023-08-21T02:27:42;102131.75;;;19.20;100.00
65760;BME280;52496;51.082;5.066;2023-08-21T02:30:13;102124.00;;;19.11;100.00
65760;BME280;52496;51.082;5.066;2023-08-21T02:32:43;102133.84;;;19.05;100.00
65760;BME280;52496;51.082;5.066;2023-08-21T02:35:14;102137.81;;;19.02;100.00
65760;BME280;52496;51.082;5.066;2023-08-21T02:37:44;102138.00;;;18.94;100.00
65760;BME280;52496;51.082;5.066;2023-08-21T02:40:15;102125.28;;;18.82;100.00
65760;BME280;52496;51.082;5.066;2023-08-21T02:45:21;102120.44;;;18.64;100.00
65760;BME280;52496;51.082;5.066;2023-08-21T02:47:54;102124.16;;;18.56;100.00
65760;BME280;52496;51.082;5.066;2023-08-21T02:50:25;102131.47;;;18.55;100.00
65760;BME280;52496;51.082;5.066;2023-08-21T02:53:02;102126.88;;;18.43;100.00
65760;BME280;52496;51.082;5.066;2023-08-21T02:55:32;102133.75;;;18.39;100.00
65760;BME280;52496;51.082;5.066;2023-08-21T02:58:03;102125.78;;;18.30;100.00
65760;BME280;52496;51.082;5.066;2023-08-21T03:00:33;102127.88;;;18.28;100.00
65760;BME280;52496;51.082;5.066;2023-08-21T03:03:04;102125.78;;;18.17;100.00
65760;BME280;52496;51.082;5.066;2023-08-21T03:05:37;102133.66;;;18.12;100.00
65760;BME280;52496;51.082;5.066;2023-08-21T03:08:07;102128.22;;;18.05;100.00
65760;BME280;52496;51.082;5.066;2023-08-21T03:13:16;102131.94;;;17.98;100.00
65760;BME280;52496;51.082;5.066;2023-08-21T03:15:46;102136.50;;;17.91;100.00
65760;BME280;52496;51.082;5.066;2023-08-21T03:20:59;102144.78;;;17.82;100.00
65760;BME280;52496;51.082;5.066;2023-08-21T03:23:30;102147.91;;;17.86;100.00
65760;BME280;52496;51.082;5.066;2023-08-21T03:26:00;102154.78;;;17.88;100.00
65760;BME280;52496;51.082;5.066;2023-08-21T03:28:31;102150.44;;;17.87;100.00
65760;BME280;52496;51.082;5.066;2023-08-21T03:33:44;102146.91;;;17.94;100.00
65760;BME280;52496;51.082;5.066;2023-08-21T03:36:15;102144.44;;;17.99;100.00
65760;BME280;52496;51.082;5.066;2023-08-21T03:38:45;102151.94;;;18.03;100.00
65760;BME280;52496;51.082;5.066;2023-08-21T03:41:16;102149.47;;;18.08;100.00
65760;BME280;52496;51.082;5.066;2023-08-21T03:43:47;102143.66;;;18.11;100.00
65760;BME280;52496;51.082;5.066;2023-08-21T03:46:20;102140.53;;;18.15;100.00
65760;BME280;52496;51.082;5.066;2023-08-21T03:48:54;102157.00;;;18.20;100.00
65760;BME280;52496;51.082;5.066;2023-08-21T03:51:24;102146.16;;;18.13;100.00
65760;BME280;52496;51.082;5.066;2023-08-21T03:53:58;102146.56;;;18.10;100.00
65760;BME280;52496;51.082;5.066;2023-08-21T03:56:28;102143.19;;;18.01;100.00
65760;BME280;52496;51.082;5.066;2023-08-21T04:01:34;102157.97;;;17.99;100.00
65760;BME280;52496;51.082;5.066;2023-08-21T04:04:04;102151.06;;;17.90;100.00
65760;BME280;52496;51.082;5.066;2023-08-21T04:09:11;102153.28;;;17.79;100.00
65760;BME280;52496;51.082;5.066;2023-08-21T04:11:41;102161.78;;;17.76;100.00
65760;BME280;52496;51.082;5.066;2023-08-21T04:14:12;102158.22;;;17.69;100.00
65760;BME280;52496;51.082;5.066;2023-08-21T04:16:43;102171.75;;;17.69;100.00
65760;BME280;52496;51.082;5.066;2023-08-21T04:19:13;102157.72;;;17.59;100.00
65760;BME280;52496;51.082;5.066;2023-08-21T04:21:44;102171.47;;;17.57;100.00
65760;BME280;52496;51.082;5.066;2023-08-21T04:24:14;102171.03;;;17.54;100.00
65760;BME280;52496;51.082;5.066;2023-08-21T04:26:45;102169.94;;;17.48;100.00
65760;BME280;52496;51.082;5.066;2023-08-21T04:29:15;102168.69;;;17.44;100.00
65760;BME280;52496;51.082;5.066;2023-08-21T04:31:45;102177.38;;;17.39;100.00
65760;BME280;52496;51.082;5.066;2023-08-21T04:34:16;102177.75;;;17.36;100.00
65760;BME280;52496;51.082;5.066;2023-08-21T04:36:48;102181.91;;;17.32;100.00
65760;BME280;52496;51.082;5.066;2023-08-21T04:39:19;102177.91;;;17.28;100.00
65760;BME280;52496;51.082;5.066;2023-08-21T04:41:49;102188.94;;;17.27;100.00
65760;BME280;52496;51.082;5.066;2023-08-21T04:44:20;102176.38;;;17.19;100.00
65760;BME280;52496;51.082;5.066;2023-08-21T04:46:51;102176.75;;;17.16;100.00
65760;BME280;52496;51.082;5.066;2023-08-21T04:52:01;102173.19;;;17.09;100.00
65760;BME280;52496;51.082;5.066;2023-08-21T04:54:32;102174.41;;;17.06;100.00
65760;BME280;52496;51.082;5.066;2023-08-21T04:57:03;102178.97;;;17.06;100.00
65760;BME280;52496;51.082;5.066;2023-08-21T04:59:35;102180.84;;;17.05;100.00
65760;BME280;52496;51.082;5.066;2023-08-21T05:02:06;102179.38;;;17.03;100.00
65760;BME280;52496;51.082;5.066;2023-08-21T05:04:37;102175.00;;;17.02;100.00
65760;BME280;52496;51.082;5.066;2023-08-21T05:07:07;102181.41;;;17.01;100.00
65760;BME280;52496;51.082;5.066;2023-08-21T05:09:38;102180.41;;;17.02;100.00
65760;BME280;52496;51.082;5.066;2023-08-21T05:12:09;102189.34;;;17.02;100.00
65760;BME280;52496;51.082;5.066;2023-08-21T05:14:44;102182.47;;;17.00;100.00
65760;BME280;52496;51.082;5.066;2023-08-21T05:19:55;102201.88;;;17.10;100.00
65760;BME280;52496;51.082;5.066;2023-08-21T05:22:26;102205.03;;;17.13;100.00
65760;BME280;52496;51.082;5.066;2023-08-21T05:24:56;102204.66;;;17.16;100.00
65760;BME280;52496;51.082;5.066;2023-08-21T05:27:30;102207.16;;;17.18;100.00
65760;BME280;52496;51.082;5.066;2023-08-21T05:30:01;102200.53;;;17.20;100.00
65760;BME280;52496;51.082;5.066;2023-08-21T05:32:31;102194.28;;;17.20;100.00
65760;BME280;52496;51.082;5.066;2023-08-21T05:35:02;102209.94;;;17.31;100.00
65760;BME280;52496;51.082;5.066;2023-08-21T05:37:34;102202.63;;;17.25;100.00
65760;BME280;52496;51.082;5.066;2023-08-21T05:40:04;102199.34;;;17.30;100.00
65760;BME280;52496;51.082;5.066;2023-08-21T05:42:38;102208.56;;;17.35;100.00
65760;BME280;52496;51.082;5.066;2023-08-21T05:45:09;102212.78;;;17.45;100.00
65760;BME280;52496;51.082;5.066;2023-08-21T05:47:40;102202.78;;;17.45;100.00
65760;BME280;52496;51.082;5.066;2023-08-21T05:50:10;102192.22;;;17.50;100.00
65760;BME280;52496;51.082;5.066;2023-08-21T05:52:41;102213.72;;;17.65;100.00
65760;BME280;52496;51.082;5.066;2023-08-21T05:55:11;102200.84;;;17.67;100.00
65760;BME280;52496;51.082;5.066;2023-08-21T05:57:42;102197.16;;;17.75;100.00
65760;BME280;52496;51.082;5.066;2023-08-21T06:00:15;102203.28;;;17.83;100.00
65760;BME280;52496;51.082;5.066;2023-08-21T06:02:46;102207.03;;;17.89;100.00
65760;BME280;52496;51.082;5.066;2023-08-21T06:05:17;102215.44;;;18.01;100.00
65760;BME280;52496;51.082;5.066;2023-08-21T06:07:47;102217.34;;;18.07;100.00
65760;BME280;52496;51.082;5.066;2023-08-21T06:10:18;102221.56;;;18.23;100.00
65760;BME280;52496;51.082;5.066;2023-08-21T06:12:49;102220.59;;;18.30;100.00
65760;BME280;52496;51.082;5.066;2023-08-21T06:15:20;102225.03;;;18.45;100.00
65760;BME280;52496;51.082;5.066;2023-08-21T06:17:51;102233.81;;;18.60;100.00
65760;BME280;52496;51.082;5.066;2023-08-21T06:20:24;102232.19;;;18.72;100.00
65760;BME280;52496;51.082;5.066;2023-08-21T06:22:55;102231.00;;;18.82;100.00
65760;BME280;52496;51.082;5.066;2023-08-21T06:25:25;102234.34;;;18.97;100.00
65760;BME280;52496;51.082;5.066;2023-08-21T06:27:56;102227.69;;;19.06;100.00
65760;BME280;52496;51.082;5.066;2023-08-21T06:30:27;102234.78;;;19.20;100.00
65760;BME280;52496;51.082;5.066;2023-08-21T06:32:57;102230.59;;;19.31;100.00
65760;BME280;52496;51.082;5.066;2023-08-21T06:35:28;102242.50;;;19.50;100.00
65760;BME280;52496;51.082;5.066;2023-08-21T06:38:01;102249.38;;;19.59;100.00
65760;BME280;52496;51.082;5.066;2023-08-21T06:40:32;102245.00;;;19.71;100.00
65760;BME280;52496;51.082;5.066;2023-08-21T06:43:02;102239.16;;;19.81;100.00
65760;BME280;52496;51.082;5.066;2023-08-21T06:45:36;102232.88;;;19.94;100.00
65760;BME280;52496;51.082;5.066;2023-08-21T06:48:06;102241.78;;;20.08;100.00
65760;BME280;52496;51.082;5.066;2023-08-21T06:50:37;102237.59;;;20.19;100.00
65760;BME280;52496;51.082;5.066;2023-08-21T06:53:08;102236.69;;;20.31;100.00
65760;BME280;52496;51.082;5.066;2023-08-21T06:55:39;102242.72;;;20.40;100.00
65760;BME280;52496;51.082;5.066;2023-08-21T06:58:09;102232.22;;;20.50;100.00
65760;BME280;52496;51.082;5.066;2023-08-21T07:00:40;102232.78;;;20.66;100.00
65760;BME280;52496;51.082;5.066;2023-08-21T07:05:58;102229.41;;;21.02;100.00
65760;BME280;52496;51.082;5.066;2023-08-21T07:08:28;102226.63;;;21.15;100.00
65760;BME280;52496;51.082;5.066;2023-08-21T07:11:02;102227.31;;;21.29;100.00
65760;BME280;52496;51.082;5.066;2023-08-21T07:13:34;102237.00;;;21.50;100.00
65760;BME280;52496;51.082;5.066;2023-08-21T07:16:05;102242.56;;;21.62;100.00
65760;BME280;52496;51.082;5.066;2023-08-21T07:18:38;102235.94;;;21.76;100.00
65760;BME280;52496;51.082;5.066;2023-08-21T07:21:09;102247.44;;;21.96;100.00
65760;BME280;52496;51.082;5.066;2023-08-21T07:23:39;102239.94;;;22.10;100.00
65760;BME280;52496;51.082;5.066;2023-08-21T07:26:13;102234.16;;;22.25;100.00
65760;BME280;52496;51.082;5.066;2023-08-21T07:28:44;102233.50;;;22.41;100.00
65760;BME280;52496;51.082;5.066;2023-08-21T07:31:14;102235.59;;;22.58;100.00
65760;BME280;52496;51.082;5.066;2023-08-21T07:33:45;102243.59;;;22.71;100.00
65760;BME280;52496;51.082;5.066;2023-08-21T07:36:16;102238.19;;;22.83;100.00
65760;BME280;52496;51.082;5.066;2023-08-21T07:38:49;102243.81;;;23.00;100.00
65760;BME280;52496;51.082;5.066;2023-08-21T07:41:20;102247.19;;;23.13;100.00
65760;BME280;52496;51.082;5.066;2023-08-21T07:43:51;102247.78;;;23.27;100.00
65760;BME280;52496;51.082;5.066;2023-08-21T07:46:22;102243.78;;;23.42;100.00
65760;BME280;52496;51.082;5.066;2023-08-21T07:48:52;102245.91;;;23.63;100.00
65760;BME280;52496;51.082;5.066;2023-08-21T07:51:24;102243.56;;;23.78;99.13
65760;BME280;52496;51.082;5.066;2023-08-21T07:53:54;102245.56;;;23.95;99.95
65760;BME280;52496;51.082;5.066;2023-08-21T07:56:28;102243.16;;;24.10;97.19
65760;BME280;52496;51.082;5.066;2023-08-21T07:58:58;102247.06;;;24.26;96.88
65760;BME280;52496;51.082;5.066;2023-08-21T08:01:29;102259.97;;;24.42;94.19
65760;BME280;52496;51.082;5.066;2023-08-21T08:04:02;102251.06;;;24.47;94.79
65760;BME280;52496;51.082;5.066;2023-08-21T08:06:33;102254.41;;;24.66;93.59
65760;BME280;52496;51.082;5.066;2023-08-21T08:09:03;102251.88;;;24.76;91.14
65760;BME280;52496;51.082;5.066;2023-08-21T08:11:37;102259.03;;;24.94;89.02
65760;BME280;52496;51.082;5.066;2023-08-21T08:14:07;102254.91;;;25.08;90.93
65760;BME280;52496;51.082;5.066;2023-08-21T08:16:41;102250.44;;;25.19;89.06
65760;BME280;52496;51.082;5.066;2023-08-21T08:19:11;102255.34;;;25.34;88.31
65760;BME280;52496;51.082;5.066;2023-08-21T08:21:42;102259.41;;;25.48;88.72
65760;BME280;52496;51.082;5.066;2023-08-21T08:24:16;102267.88;;;25.63;87.11
65760;BME280;52496;51.082;5.066;2023-08-21T08:26:46;102269.19;;;25.78;85.06
65760;BME280;52496;51.082;5.066;2023-08-21T08:29:17;102262.22;;;25.87;86.97
65760;BME280;52496;51.082;5.066;2023-08-21T08:31:47;102262.34;;;25.97;84.19
65760;BME280;52496;51.082;5.066;2023-08-21T08:34:18;102264.16;;;26.08;82.45
65760;BME280;52496;51.082;5.066;2023-08-21T08:36:50;102260.38;;;26.15;81.44
65760;BME280;52496;51.082;5.066;2023-08-21T08:39:21;102257.19;;;26.23;80.67
65760;BME280;52496;51.082;5.066;2023-08-21T08:41:57;102258.38;;;26.32;80.91
65760;BME280;52496;51.082;5.066;2023-08-21T08:44:29;102253.59;;;26.44;78.82
65760;BME280;52496;51.082;5.066;2023-08-21T08:47:00;102254.50;;;26.50;77.89
65760;BME280;52496;51.082;5.066;2023-08-21T08:49:31;102261.78;;;26.61;78.14
65760;BME280;52496;51.082;5.066;2023-08-21T08:52:05;102251.16;;;26.70;77.42
65760;BME280;52496;51.082;5.066;2023-08-21T08:54:36;102257.34;;;26.82;76.87
65760;BME280;52496;51.082;5.066;2023-08-21T08:57:08;102264.59;;;26.93;73.90
65760;BME280;52496;51.082;5.066;2023-08-21T08:59:39;102263.53;;;26.99;73.82
65760;BME280;52496;51.082;5.066;2023-08-21T09:02:09;102265.78;;;27.08;73.45
65760;BME280;52496;51.082;5.066;2023-08-21T09:04:40;102269.78;;;27.22;74.99
65760;BME280;52496;51.082;5.066;2023-08-21T09:07:11;102274.88;;;27.40;73.65
65760;BME280;52496;51.082;5.066;2023-08-21T09:09:46;102272.53;;;27.59;72.96
65760;BME280;52496;51.082;5.066;2023-08-21T09:12:17;102267.34;;;27.63;71.38
65760;BME280;52496;51.082;5.066;2023-08-21T09:14:48;102264.69;;;27.73;71.57
65760;BME280;52496;51.082;5.066;2023-08-21T09:17:18;102251.53;;;27.80;67.52
65760;BME280;52496;51.082;5.066;2023-08-21T09:19:49;102260.94;;;27.89;68.09
65760;BME280;52496;51.082;5.066;2023-08-21T09:22:19;102264.84;;;27.99;64.15
65760;BME280;52496;51.082;5.066;2023-08-21T09:25:01;102259.63;;;28.02;64.86
65760;BME280;52496;51.082;5.066;2023-08-21T09:27:36;102250.03;;;28.10;67.15
65760;BME280;52496;51.082;5.066;2023-08-21T09:30:11;102244.31;;;28.27;66.56
65760;BME280;52496;51.082;5.066;2023-08-21T09:32:56;102244.69;;;28.41;61.96
65760;BME280;52496;51.082;5.066;2023-08-21T09:35:27;102248.47;;;28.34;63.31
65760;BME280;52496;51.082;5.066;2023-08-21T09:37:57;102250.13;;;28.35;62.10
65760;BME280;52496;51.082;5.066;2023-08-21T09:40:27;102251.56;;;28.43;64.12
65760;BME280;52496;51.082;5.066;2023-08-21T09:42:58;102244.72;;;28.56;64.18
65760;BME280;52496;51.082;5.066;2023-08-21T09:45:29;102240.31;;;28.65;63.51
65760;BME280;52496;51.082;5.066;2023-08-21T09:48:01;102240.91;;;28.77;62.32
65760;BME280;52496;51.082;5.066;2023-08-21T09:50:32;102253.28;;;28.90;61.49
65760;BME280;52496;51.082;5.066;2023-08-21T09:53:03;102243.69;;;29.08;60.59
65760;BME280;52496;51.082;5.066;2023-08-21T09:55:35;102240.13;;;29.13;61.37
65760;BME280;52496;51.082;5.066;2023-08-21T09:58:06;102243.16;;;29.11;58.66
65760;BME280;52496;51.082;5.066;2023-08-21T10:00:37;102240.94;;;29.13;59.24
65760;BME280;52496;51.082;5.066;2023-08-21T10:03:08;102226.88;;;29.35;62.64
65760;BME280;52496;51.082;5.066;2023-08-21T10:05:40;102237.59;;;29.62;61.33
65760;BME280;52496;51.082;5.066;2023-08-21T10:08:12;102239.19;;;29.84;60.55
65760;BME280;52496;51.082;5.066;2023-08-21T10:10:44;102235.25;;;30.05;59.07
65760;BME280;52496;51.082;5.066;2023-08-21T10:13:17;102234.72;;;29.98;58.65
65760;BME280;52496;51.082;5.066;2023-08-21T10:15:48;102234.16;;;30.01;57.25
65760;BME280;52496;51.082;5.066;2023-08-21T10:18:32;102224.22;;;30.05;55.43
65760;BME280;52496;51.082;5.066;2023-08-21T10:21:15;102238.38;;;29.73;55.14
65760;BME280;52496;51.082;5.066;2023-08-21T10:23:50;102223.28;;;29.24;55.36
65760;BME280;52496;51.082;5.066;2023-08-21T10:26:22;102234.88;;;29.01;55.70
65760;BME280;52496;51.082;5.066;2023-08-21T10:28:59;102232.69;;;29.08;57.72
65760;BME280;52496;51.082;5.066;2023-08-21T10:31:37;102235.97;;;29.31;56.85
65760;BME280;52496;51.082;5.066;2023-08-21T10:34:13;102230.41;;;29.56;56.84
65760;BME280;52496;51.082;5.066;2023-08-21T10:39:24;102229.19;;;30.03;55.21
65760;BME280;52496;51.082;5.066;2023-08-21T10:42:04;102226.00;;;30.40;54.33
65760;BME280;52496;51.082;5.066;2023-08-21T10:47:16;102232.13;;;31.11;53.90
65760;BME280;52496;51.082;5.066;2023-08-21T10:49:50;102233.41;;;30.90;53.27
65760;BME280;52496;51.082;5.066;2023-08-21T10:52:41;102227.38;;;30.38;53.52
65760;BME280;52496;51.082;5.066;2023-08-21T10:55:18;102238.28;;;30.04;56.46
65760;BME280;52496;51.082;5.066;2023-08-21T10:57:49;102230.78;;;30.20;54.10
65760;BME280;52496;51.082;5.066;2023-08-21T11:00:20;102228.66;;;30.01;54.52
65760;BME280;52496;51.082;5.066;2023-08-21T11:02:50;102229.53;;;29.81;54.66
65760;BME280;52496;51.082;5.066;2023-08-21T11:05:21;102226.03;;;29.45;56.24
65760;BME280;52496;51.082;5.066;2023-08-21T11:07:51;102227.72;;;29.15;57.59
65760;BME280;52496;51.082;5.066;2023-08-21T11:10:23;102226.03;;;28.89;57.07
65760;BME280;52496;51.082;5.066;2023-08-21T11:12:55;102222.72;;;28.71;58.40
65760;BME280;52496;51.082;5.066;2023-08-21T11:15:28;102221.88;;;28.61;60.47
65760;BME280;52496;51.082;5.066;2023-08-21T11:18:00;102227.44;;;29.01;56.32
65760;BME280;52496;51.082;5.066;2023-08-21T11:20:32;102226.56;;;29.52;54.86
65760;BME280;52496;51.082;5.066;2023-08-21T11:23:05;102214.31;;;29.99;53.25
65760;BME280;52496;51.082;5.066;2023-08-21T11:25:42;102218.56;;;30.36;53.05
65760;BME280;52496;51.082;5.066;2023-08-21T11:28:16;102209.53;;;30.64;52.84
65760;BME280;52496;51.082;5.066;2023-08-21T11:30:46;102211.06;;;30.86;52.22
65760;BME280;52496;51.082;5.066;2023-08-21T11:33:17;102216.97;;;31.03;49.07
65760;BME280;52496;51.082;5.066;2023-08-21T11:35:49;102219.03;;;31.22;49.93
65760;BME280;52496;51.082;5.066;2023-08-21T11:38:21;102214.97;;;31.43;49.16
65760;BME280;52496;51.082;5.066;2023-08-21T11:40:52;102216.50;;;31.54;47.58
65760;BME280;52496;51.082;5.066;2023-08-21T11:43:37;102210.84;;;31.65;49.30
65760;BME280;52496;51.082;5.066;2023-08-21T11:46:09;102217.38;;;31.74;48.12
65760;BME280;52496;51.082;5.066;2023-08-21T11:48:44;102209.13;;;31.50;48.26
65760;BME280;52496;51.082;5.066;2023-08-21T11:51:15;102203.31;;;31.46;47.52
65760;BME280;52496;51.082;5.066;2023-08-21T11:53:47;102207.63;;;31.58;48.24
65760;BME280;52496;51.082;5.066;2023-08-21T11:56:19;102204.63;;;31.78;48.28
65760;BME280;52496;51.082;5.066;2023-08-21T11:58:49;102205.91;;;32.10;48.14
65760;BME280;52496;51.082;5.066;2023-08-21T12:01:21;102204.13;;;32.19;46.33
65760;BME280;52496;51.082;5.066;2023-08-21T12:03:51;102200.09;;;32.30;47.02
65760;BME280;52496;51.082;5.066;2023-08-21T12:06:25;102204.44;;;32.36;46.42
65760;BME280;52496;51.082;5.066;2023-08-21T12:08:57;102202.06;;;32.49;45.95
65760;BME280;52496;51.082;5.066;2023-08-21T12:11:27;102204.50;;;32.50;46.93
65760;BME280;52496;51.082;5.066;2023-08-21T12:13:58;102199.81;;;32.51;45.10
65760;BME280;52496;51.082;5.066;2023-08-21T12:16:28;102200.75;;;32.41;45.25
65760;BME280;52496;51.082;5.066;2023-08-21T12:18:59;102204.81;;;32.49;43.99
65760;BME280;52496;51.082;5.066;2023-08-21T12:21:29;102201.75;;;32.50;44.91
65760;BME280;52496;51.082;5.066;2023-08-21T12:24:00;102188.56;;;32.61;44.16
65760;BME280;52496;51.082;5.066;2023-08-21T12:26:31;102195.00;;;32.75;45.30
65760;BME280;52496;51.082;5.066;2023-08-21T12:29:01;102189.94;;;32.77;44.25
65760;BME280;52496;51.082;5.066;2023-08-21T12:31:32;102202.59;;;32.83;42.76
65760;BME280;52496;51.082;5.066;2023-08-21T12:34:03;102203.53;;;32.93;43.28
65760;BME280;52496;51.082;5.066;2023-08-21T12:36:37;102199.22;;;33.05;42.60
65760;BME280;52496;51.082;5.066;2023-08-21T12:39:07;102202.31;;;33.18;41.06
65760;BME280;52496;51.082;5.066;2023-08-21T12:41:39;102189.28;;;33.18;43.14
65760;BME280;52496;51.082;5.066;2023-08-21T12:44:09;102185.91;;;33.21;41.87
65760;BME280;52496;51.082;5.066;2023-08-21T12:46:40;102182.13;;;33.45;41.89
65760;BME280;52496;51.082;5.066;2023-08-21T12:49:10;102175.88;;;33.67;40.56
65760;BME280;52496;51.082;5.066;2023-08-21T12:51:41;102177.84;;;33.66;41.06
65760;BME280;52496;51.082;5.066;2023-08-21T12:54:11;102178.03;;;33.56;40.94
65760;BME280;52496;51.082;5.066;2023-08-21T12:56:42;102184.34;;;33.15;41.19
65760;BME280;52496;51.082;5.066;2023-08-21T12:59:13;102178.06;;;33.23;43.03
65760;BME280;52496;51.082;5.066;2023-08-21T13:01:43;102182.63;;;33.47;40.21
65760;BME280;52496;51.082;5.066;2023-08-21T13:04:14;102171.75;;;33.64;42.28
65760;BME280;52496;51.082;5.066;2023-08-21T13:06:44;102175.44;;;33.73;41.90
65760;BME280;52496;51.082;5.066;2023-08-21T13:09:15;102174.00;;;33.48;43.16
65760;BME280;52496;51.082;5.066;2023-08-21T13:11:45;102178.97;;;33.51;41.04
65760;BME280;52496;51.082;5.066;2023-08-21T13:14:16;102175.38;;;33.51;40.92
65760;BME280;52496;51.082;5.066;2023-08-21T13:16:46;102176.31;;;33.60;41.84
65760;BME280;52496;51.082;5.066;2023-08-21T13:19:16;102171.44;;;33.79;42.40
65760;BME280;52496;51.082;5.066;2023-08-21T13:21:47;102173.34;;;33.93;39.50
65760;BME280;52496;51.082;5.066;2023-08-21T13:24:17;102174.41;;;33.83;41.32
65760;BME280;52496;51.082;5.066;2023-08-21T13:26:48;102176.03;;;33.15;39.87
65760;BME280;52496;51.082;5.066;2023-08-21T13:29:18;102179.13;;;32.43;40.62
65760;BME280;52496;51.082;5.066;2023-08-21T13:31:49;102178.59;;;31.79;41.57
65760;BME280;52496;51.082;5.066;2023-08-21T13:34:19;102172.00;;;31.27;42.62
65760;BME280;52496;51.082;5.066;2023-08-21T13:36:49;102171.47;;;30.96;44.36
65760;BME280;52496;51.082;5.066;2023-08-21T13:39:21;102166.91;;;30.81;45.12
65760;BME280;52496;51.082;5.066;2023-08-21T13:41:52;102161.00;;;31.22;46.45
65760;BME280;52496;51.082;5.066;2023-08-21T13:44:22;102161.66;;;31.86;45.88
65760;BME280;52496;51.082;5.066;2023-08-21T13:46:53;102167.41;;;32.32;42.93
65760;BME280;52496;51.082;5.066;2023-08-21T13:49:23;102173.50;;;32.67;42.18
65760;BME280;52496;51.082;5.066;2023-08-21T13:51:54;102163.28;;;33.00;40.78
65760;BME280;52496;51.082;5.066;2023-08-21T13:54:24;102166.97;;;33.23;42.27
65760;BME280;52496;51.082;5.066;2023-08-21T13:56:55;102162.31;;;33.51;40.15
65760;BME280;52496;51.082;5.066;2023-08-21T13:59:25;102159.66;;;33.60;40.17
65760;BME280;52496;51.082;5.066;2023-08-21T14:01:55;102152.03;;;33.79;40.11
65760;BME280;52496;51.082;5.066;2023-08-21T14:04:26;102161.88;;;33.86;37.21
65760;BME280;52496;51.082;5.066;2023-08-21T14:06:56;102154.44;;;33.95;39.58
65760;BME280;52496;51.082;5.066;2023-08-21T14:09:26;102155.66;;;34.16;38.40
65760;BME280;52496;51.082;5.066;2023-08-21T14:11:57;102154.03;;;34.38;38.20
65760;BME280;52496;51.082;5.066;2023-08-21T14:14:27;102149.13;;;34.57;38.09